AirNav   Free Bose Alto or Rondo audio sunglasses
 
 1006 users online  

T19 Duval-Freer Airport
Freer, Texas, USA

GOING TO FREER?


FAA INFORMATION EFFECTIVE 05 NOVEMBER 2020

Location

FAA Identifier: T19
Lat/Long: 27-53-19.3000N 098-35-59.8500W
27-53.321667N 098-35.997500W
27.8886944,-98.5999583
(estimated)
Elevation: 564 ft. / 171.9 m (surveyed)
Variation: 07E (1985)
From city: 1 mile NE of FREER, TX
Time zone: UTC -6 (UTC -5 during Daylight Saving Time)
Zip code: 78357

Airport Operations

Airport use: Open to the public
Activation date: 11/1947
Control tower: no
ARTCC: HOUSTON CENTER
FSS: SAN ANGELO FLIGHT SERVICE STATION
NOTAMs facility: SJT (NOTAM-D service available)
Attendance: UNATNDD
Wind indicator: lighted
Segmented circle: yes
Lights: SS-SR
Beacon: white-green (lighted land airport)
Operates sunset to sunrise.

Airport Communications

CTAF: 122.9

Nearby radio navigation aids

VOR radial/distance  VOR name  Freq  Var
ALIr280/(32.0)ALICE VOR114.5006E

 
NDB name  Hdg/Dist  Freq  Var  ID
HEBBRONVILLE007/33.026606EHBV .... -... ...-

Airport Services

Parking: tiedowns
Airframe service: NONE
Powerplant service: NONE

Runway Information

Runway 14/32

Dimensions: 3200 x 60 ft. / 975 x 18 m
Surface: asphalt, in poor condition
BROKEN ASPHALT, LOOSE STONES, METAL PIECES ON RWY, VEGETATION ENCROACHING ALONG RWY EDGES.
Weight bearing capacity: 
Single wheel: 24.0
Runway edge lights: low intensity
SVRL RWY & THR LTS INOP, INCORRECT COLOR, & MOUNTED ON NON-FRANGIBLE STEEL RODS.
RUNWAY 14  RUNWAY 32
Traffic pattern: leftleft
Markings: basic, in fair conditionbasic, in fair condition
Obstructions: 12 ft. brush, 201 ft. from runway, 30 ft. left of centerline
BRUSH & SML TREES, 50-199 FT DSTC, 0 FT BOTH.
42 ft. pole, 977 ft. from runway, 86 ft. right of centerline, 18:1 slope to clear

Airport Ownership and Management from official FAA records

Ownership: Publicly-owned
Owner: DUVAL CO - CITY OF FREER
CITY OF FREER
FREER, TX 78357
Phone 361-394-6612
Manager: DAVID GUAJARDO
P.O. DRAWER N
FREER, TX 78357
Phone 361-394-6612
CITY FOREMAN

Airport Operational Statistics

Aircraft operations: 100/year *
100% transient general aviation
* for 12-month period ending 07 May 2020

Additional Remarks

TO HAVE GATE UNLOCKED, CALL 361-394-6002 (POLICE DEPT).
APRON AND TWY, NO MARKING.
FOR CD CTC HOUSTON ARTCC AT 281-230-5622.
NO TRML FAC.

Instrument Procedures

There are no published instrument procedures at T19.

Some nearby airports with instrument procedures:

KNOG - Orange Grove Naval Auxiliary Field (30 nm E)
KALI - Alice International Airport (32 nm E)
KHBV - Jim Hogg County Airport (33 nm S)
KIKG - Kleberg County Airport (36 nm SE)
8T6 - Live Oak County Airport (38 nm NE)
 
Loc | Ops | Rwys | IFR | FBO | Links
Com | Nav | Svcs | Stats | Notes
Area around T19 (Duval-Freer Airport)
 
Road maps at: MapQuest Bing Google
 
Aerial photo
WARNING: Photo may not be current or correct
Aerial photo of T19 (Duval-Freer Airport)
Photo by Gregg Gilliam
Taken in January 2009

Do you have a better or more recent aerial photo of Duval-Freer Airport that you would like to share? If so, please send us your photo.

 
Sectional chart

 
Airport distance calculator
Flying to Duval-Freer Airport? Find the distance to fly.

From to T19

Sunrise and sunset
Times for 27-Nov-2020
 Local
(UTC-6)
 Zulu
(UTC)
Morning civil twilight06:4212:42
Sunrise07:0713:07
Sunset17:3823:38
Evening civil twilight18:0300:03

Current date and time
Zulu (UTC)  27-Nov-2020 21:58:45
Local (UTC-6)  27-Nov-2020 15:58:45
 
METAR
KNOG 
29nm E 
272056Z AUTO 13010KT 10SM FEW050 BKN080 BKN090 30/20 A2988 RMK AO2 SLP098 T03000200 56033 TSNO $
KALI 
32nm E 
272153Z AUTO 15014KT 10SM FEW070 BKN085 28/22 A2986 RMK AO2 SLP110 T02830217
KHBV 
33nm S 
272135Z AUTO 16011KT 10SM SCT047 SCT055 SCT065 29/17 A2987 RMK AO2 T02930167
KIKG 
36nm SE 
272135Z AUTO 10012KT 10SM OVC090 30/25 A2988 RMK AO2 T02990245
KCOT 
47nm NW 
272153Z AUTO 03009KT 10SM OVC060 27/17 A2989 RMK AO2 SLP114 T02670167
KNQI 
48nm SE 
272056Z 14017KT 10SM FEW030 SCT060 BKN090 28/22 A2989 RMK AO2 SLP117 T02780217 56023
KBKS 
48nm SE 
272135Z AUTO 11010G17KT 10SM SCT048 BKN065 27/22 A2986 RMK AO2 T02700215
KRBO 
49nm E 
272135Z AUTO 16016KT 10SM CLR 30/23 A2988 RMK AO2 T03000226
TAF
KALI 
32nm E 
271727Z 2718/2818 17008KT P6SM -SHRA VCTS SCT020CB OVC035 TEMPO 2719/2723 3SM -TSRA BR BKN020CB FM280000 09008KT 6SM SHRA BR VCTS OVC015CB TEMPO 2800/2804 VRB06KT 2SM -TSRA OVC010CB FM280400 09007KT 4SM SHRA BR VCTS OVC015CB TEMPO 2805/2809 1 1/2SM -TSRA OVC008CB FM280900 09007KT 2SM -SHRA BR VCTS OVC015CB TEMPO 2809/2813 1 1/2SM -TSRA OVC010CB
NOTAMs
Click for the latest NOTAMs
NOTAMs are issued by the DoD/FAA and will open in a separate window not controlled by AirNav.

 

 
 

Would you like to see your business listed on this page?

 If your business provides an interesting product or service to pilots, flight crews, aircraft, or users of the Duval-Freer Airport, you should consider listing it here.  To start the listing process, click on the button below
 
Add a business
 

Other Pages about Duval-Freer Airport

Update a link
 
Copyright © AirNav, LLC. All rights reserved. Privacy Policy  Contact